createdAt,value
2022-10-31T00:01:26.816Z,0
2022-10-31T00:06:30.995Z,0
2022-10-31T00:11:35.134Z,0
2022-10-31T00:16:39.315Z,0
2022-10-31T00:21:43.485Z,0
2022-10-31T00:26:47.608Z,0
2022-10-31T00:31:51.818Z,0
2022-10-31T00:36:55.957Z,0
2022-10-31T00:42:00.113Z,0
2022-10-31T00:47:04.292Z,0
2022-10-31T00:52:08.423Z,0
2022-10-31T00:57:12.621Z,0
2022-10-31T01:02:16.973Z,0
2022-10-31T01:07:20.902Z,0
2022-10-31T01:12:25.064Z,0
2022-10-31T01:17:29.287Z,0
2022-10-31T01:22:33.378Z,0
2022-10-31T01:27:37.538Z,0
2022-10-31T01:32:41.703Z,0
2022-10-31T01:37:45.925Z,0
2022-10-31T01:42:50.045Z,0
2022-10-31T01:47:54.223Z,0
2022-10-31T01:52:58.396Z,0
2022-10-31T01:58:02.943Z,0
2022-10-31T02:03:06.687Z,0
2022-10-31T02:08:10.841Z,0
2022-10-31T02:13:15.382Z,0
2022-10-31T02:18:19.153Z,0
2022-10-31T02:23:23.342Z,0
2022-10-31T02:28:27.474Z,0
2022-10-31T02:33:31.657Z,0
2022-10-31T02:38:35.825Z,0
2022-10-31T02:43:39.954Z,0
2022-10-31T02:48:44.132Z,0
2022-10-31T02:53:48.267Z,0
2022-10-31T02:58:52.491Z,0
2022-10-31T03:03:56.591Z,0
2022-10-31T03:09:00.775Z,0
2022-10-31T03:14:04.919Z,0
2022-10-31T03:19:09.106Z,0
2022-10-31T03:24:13.247Z,0
2022-10-31T03:29:17.397Z,0
2022-10-31T03:34:21.543Z,0
2022-10-31T03:39:25.784Z,0
2022-10-31T03:44:29.922Z,0
2022-10-31T03:49:34.105Z,0
2022-10-31T03:54:38.201Z,0
2022-10-31T03:59:42.398Z,0
2022-10-31T04:04:46.552Z,0
2022-10-31T04:09:50.688Z,0
2022-10-31T04:14:54.871Z,0
2022-10-31T04:19:59.047Z,0
2022-10-31T04:25:03.459Z,0
2022-10-31T04:30:07.331Z,0
2022-10-31T04:35:11.482Z,0
2022-10-31T04:40:15.705Z,0
2022-10-31T04:45:21.300Z,0
2022-10-31T04:50:23.996Z,0
2022-10-31T04:55:28.165Z,0
2022-10-31T05:00:30.424Z,0
2022-10-31T05:05:34.557Z,0
2022-10-31T05:10:38.755Z,0
2022-10-31T05:15:42.897Z,0
2022-10-31T05:20:47.080Z,0
2022-10-31T05:25:51.194Z,0
2022-10-31T05:30:55.469Z,0
2022-10-31T05:35:59.553Z,0
2022-10-31T05:41:03.753Z,0
2022-10-31T05:46:07.887Z,0
2022-10-31T05:51:12.037Z,0
2022-10-31T05:56:16.163Z,0
2022-10-31T06:01:20.415Z,3
2022-10-31T06:06:24.517Z,8
2022-10-31T06:11:28.658Z,19
2022-10-31T06:16:32.805Z,38
2022-10-31T06:21:37.000Z,77
2022-10-31T06:26:41.135Z,124
2022-10-31T06:31:45.306Z,208
2022-10-31T06:36:49.509Z,295
2022-10-31T06:41:53.655Z,409
2022-10-31T06:46:57.797Z,565
2022-10-31T06:52:01.935Z,688
2022-10-31T06:57:06.114Z,782
2022-10-31T07:02:10.464Z,897
2022-10-31T07:07:14.438Z,1080
2022-10-31T07:12:18.581Z,1178
2022-10-31T07:17:26.045Z,1322
2022-10-31T07:22:26.954Z,1388
2022-10-31T07:27:31.103Z,1431
2022-10-31T07:32:35.248Z,1568
2022-10-31T07:37:39.408Z,1623
2022-10-31T07:42:43.838Z,1624
2022-10-31T07:47:47.702Z,1685
2022-10-31T07:52:51.895Z,1697
2022-10-31T07:57:56.055Z,1754
2022-10-31T08:03:00.611Z,1913
2022-10-31T08:08:04.578Z,2073
2022-10-31T08:13:08.523Z,2243
2022-10-31T08:18:12.713Z,2395
2022-10-31T08:23:16.868Z,2507
2022-10-31T08:28:20.985Z,2761
2022-10-31T08:33:25.163Z,2950
2022-10-31T08:38:29.306Z,3093
2022-10-31T08:43:33.513Z,3311
2022-10-31T08:48:37.691Z,3405
2022-10-31T08:53:41.803Z,3585
2022-10-31T08:58:46.244Z,3620
2022-10-31T09:03:50.182Z,3491
2022-10-31T09:08:54.315Z,3561
2022-10-31T09:13:58.447Z,3593
2022-10-31T09:19:05.205Z,3427
2022-10-31T09:24:06.828Z,3234
2022-10-31T09:29:10.931Z,2930
2022-10-31T09:34:15.092Z,3086
2022-10-31T09:39:19.320Z,3272
2022-10-31T09:44:23.439Z,3535
2022-10-31T09:49:27.703Z,3954
2022-10-31T09:54:31.740Z,4380
2022-10-31T09:59:35.916Z,4514
2022-10-31T10:04:40.101Z,4764
2022-10-31T10:09:44.206Z,4829
2022-10-31T10:14:48.370Z,5106
2022-10-31T10:19:52.544Z,5854
2022-10-31T10:24:56.717Z,6262
2022-10-31T10:29:58.986Z,6193
2022-10-31T10:35:03.141Z,5780
2022-10-31T10:40:07.305Z,5775
2022-10-31T10:45:11.447Z,6053
2022-10-31T10:50:15.604Z,5640
2022-10-31T10:55:19.746Z,5245
2022-10-31T11:00:23.915Z,4120
2022-10-31T11:05:28.117Z,4192
2022-10-31T11:10:32.236Z,4605
2022-10-31T11:15:38.423Z,5250
2022-10-31T11:20:40.597Z,6320
2022-10-31T11:25:44.767Z,6702
2022-10-31T11:30:48.903Z,6275
2022-10-31T11:35:55.224Z,5960
2022-10-31T11:40:57.199Z,5785
2022-10-31T11:46:01.418Z,6680
2022-10-31T11:51:05.521Z,6755
2022-10-31T11:56:09.674Z,5969
2022-10-31T12:01:13.875Z,5623
2022-10-31T12:06:18.011Z,5095
2022-10-31T12:11:22.150Z,5075
2022-10-31T12:16:26.309Z,5280
2022-10-31T12:21:30.483Z,5465
2022-10-31T12:26:34.624Z,5751
2022-10-31T12:31:38.816Z,5642
2022-10-31T12:36:42.955Z,5682
2022-10-31T12:41:47.121Z,5050
2022-10-31T12:51:55.453Z,4470
2022-10-31T12:56:59.554Z,4277
2022-10-31T13:02:03.811Z,4131
2022-10-31T13:07:07.903Z,4029
2022-10-31T13:12:12.078Z,4116
2022-10-31T13:17:16.234Z,4435
2022-10-31T13:22:20.415Z,4684
2022-10-31T13:27:24.548Z,4737
2022-10-31T13:32:28.725Z,4752
2022-10-31T13:37:32.879Z,4562
2022-10-31T13:42:37.060Z,4310
2022-10-31T13:47:41.399Z,4283
2022-10-31T13:52:45.389Z,4377
2022-10-31T13:57:49.491Z,4368
2022-10-31T14:02:53.722Z,4453
2022-10-31T14:07:58.181Z,4364
2022-10-31T14:13:01.996Z,4280
2022-10-31T14:18:06.117Z,4250
2022-10-31T14:23:10.287Z,4187
2022-10-31T14:28:14.436Z,3636
2022-10-31T14:33:18.653Z,3724
2022-10-31T14:38:22.788Z,3340
2022-10-31T14:43:26.919Z,2753
2022-10-31T14:48:31.080Z,2633
2022-10-31T14:53:35.233Z,2473
2022-10-31T14:58:39.405Z,2400
2022-10-31T15:03:44.737Z,2218
2022-10-31T15:08:47.725Z,2104
2022-10-31T15:13:52.038Z,2257
2022-10-31T15:18:56.050Z,2261
2022-10-31T15:24:00.213Z,1960
2022-10-31T15:29:04.335Z,1715
2022-10-31T15:34:08.618Z,1507
2022-10-31T15:39:12.715Z,1215
2022-10-31T15:44:16.857Z,980
2022-10-31T15:49:21.006Z,764
2022-10-31T15:54:25.187Z,581
2022-10-31T15:59:27.419Z,442
2022-10-31T16:04:31.613Z,259
2022-10-31T16:09:35.748Z,145
2022-10-31T16:14:39.886Z,88
2022-10-31T16:19:44.062Z,50
2022-10-31T16:24:48.254Z,24
2022-10-31T16:29:50.469Z,10
2022-10-31T16:34:54.641Z,4
2022-10-31T16:39:58.810Z,1
2022-10-31T16:45:02.973Z,0
2022-10-31T16:50:07.110Z,0
2022-10-31T16:55:11.286Z,0
2022-10-31T17:00:15.445Z,0
2022-10-31T17:05:19.634Z,0
2022-10-31T17:10:23.770Z,0
2022-10-31T17:15:27.915Z,0
2022-10-31T17:20:32.102Z,0
2022-10-31T17:25:36.247Z,0
2022-10-31T17:30:40.366Z,0
2022-10-31T17:35:44.547Z,0
2022-10-31T17:45:52.930Z,0
2022-10-31T17:50:57.104Z,0
2022-10-31T17:56:01.188Z,0
2022-10-31T18:01:05.481Z,0
2022-10-31T18:06:09.526Z,0
2022-10-31T18:11:13.660Z,0
2022-10-31T18:16:17.836Z,0
2022-10-31T18:21:22.002Z,0
2022-10-31T18:26:26.182Z,0
2022-10-31T18:31:30.309Z,0
2022-10-31T18:36:34.492Z,0
2022-10-31T18:41:38.620Z,0
2022-10-31T18:46:42.802Z,0
2022-10-31T18:51:46.927Z,0
2022-10-31T18:56:51.116Z,0
2022-10-31T19:01:55.385Z,0
2022-10-31T19:06:59.456Z,0
2022-10-31T19:12:03.575Z,0
2022-10-31T19:17:07.866Z,0
2022-10-31T19:22:11.896Z,0
2022-10-31T19:27:16.075Z,0
2022-10-31T19:32:20.230Z,0
2022-10-31T19:37:24.394Z,0
2022-10-31T19:42:28.544Z,0
2022-10-31T19:47:32.698Z,0
2022-10-31T19:52:36.859Z,0
2022-10-31T19:58:11.844Z,0
2022-10-31T20:02:45.171Z,0
2022-10-31T20:07:49.351Z,0
2022-10-31T20:12:53.462Z,0
2022-10-31T20:17:57.656Z,0
2022-10-31T20:23:01.987Z,0
2022-10-31T20:28:05.980Z,0
2022-10-31T20:33:10.135Z,0
2022-10-31T20:38:14.300Z,0
2022-10-31T20:43:18.452Z,0
2022-10-31T20:48:22.641Z,0
2022-10-31T20:53:26.788Z,0
2022-10-31T20:58:30.957Z,0
2022-10-31T21:03:35.091Z,0
2022-10-31T21:08:39.273Z,0
2022-10-31T21:13:43.432Z,0
2022-10-31T21:18:47.583Z,0
2022-10-31T21:23:51.718Z,0
2022-10-31T21:28:55.915Z,0
2022-10-31T21:34:00.050Z,0
2022-10-31T21:39:04.239Z,0
2022-10-31T21:44:08.351Z,0
2022-10-31T21:49:12.527Z,0
2022-10-31T21:54:16.696Z,0
2022-10-31T21:59:18.933Z,0
2022-10-31T22:04:23.101Z,0
2022-10-31T22:09:27.271Z,0
2022-10-31T22:14:31.477Z,0
2022-10-31T22:19:35.573Z,0
2022-10-31T22:24:39.765Z,0
2022-10-31T22:29:43.944Z,0
2022-10-31T22:34:48.063Z,0
2022-10-31T22:39:52.232Z,0
2022-10-31T22:44:56.387Z,0
2022-10-31T22:50:00.577Z,0
2022-10-31T22:55:04.852Z,0
2022-10-31T23:00:08.853Z,0
2022-10-31T23:05:13.031Z,0
2022-10-31T23:10:17.212Z,0
2022-10-31T23:15:21.316Z,0
2022-10-31T23:20:25.514Z,0
2022-10-31T23:25:29.666Z,0
2022-10-31T23:30:33.829Z,0
2022-10-31T23:35:37.996Z,0
2022-10-31T23:40:42.128Z,0
2022-10-31T23:45:46.299Z,0
2022-10-31T23:50:50.484Z,0
2022-10-31T23:55:54.631Z,0
